sensor_id;sensor_type;location;lat;lon;timestamp;P1;durP1;ratioP1;P2;durP2;ratioP2
82777;SDS011;72510;45.128;20.734;2024-01-06T00:02:36;9.85;;;5.15;;
82777;SDS011;72510;45.128;20.734;2024-01-06T00:12:37;7.75;;;3.65;;
82777;SDS011;72510;45.128;20.734;2024-01-06T00:22:38;10.30;;;4.38;;
82777;SDS011;72510;45.128;20.734;2024-01-06T00:32:40;5.38;;;2.72;;
82777;SDS011;72510;45.128;20.734;2024-01-06T00:42:41;7.88;;;4.72;;
82777;SDS011;72510;45.128;20.734;2024-01-06T00:52:42;3.50;;;2.33;;
82777;SDS011;72510;45.128;20.734;2024-01-06T01:02:46;3.92;;;2.13;;
82777;SDS011;72510;45.128;20.734;2024-01-06T01:12:49;4.72;;;2.78;;
82777;SDS011;72510;45.128;20.734;2024-01-06T01:22:53;3.75;;;2.65;;
82777;SDS011;72510;45.128;20.734;2024-01-06T01:32:54;4.07;;;2.17;;
82777;SDS011;72510;45.128;20.734;2024-01-06T01:42:55;6.03;;;2.53;;
82777;SDS011;72510;45.128;20.734;2024-01-06T01:52:57;4.07;;;2.00;;
82777;SDS011;72510;45.128;20.734;2024-01-06T02:02:59;2.78;;;1.90;;
82777;SDS011;72510;45.128;20.734;2024-01-06T02:13:10;4.72;;;2.75;;
82777;SDS011;72510;45.128;20.734;2024-01-06T02:23:12;3.75;;;2.25;;
82777;SDS011;72510;45.128;20.734;2024-01-06T02:33:13;5.25;;;2.60;;
82777;SDS011;72510;45.128;20.734;2024-01-06T02:43:14;4.47;;;2.28;;
82777;SDS011;72510;45.128;20.734;2024-01-06T02:53:15;2.58;;;2.08;;
82777;SDS011;72510;45.128;20.734;2024-01-06T03:03:17;4.47;;;2.08;;
82777;SDS011;72510;45.128;20.734;2024-01-06T03:13:18;5.35;;;2.15;;
82777;SDS011;72510;45.128;20.734;2024-01-06T03:23:19;3.40;;;2.15;;
82777;SDS011;72510;45.128;20.734;2024-01-06T03:33:21;3.72;;;2.35;;
82777;SDS011;72510;45.128;20.734;2024-01-06T03:43:22;5.63;;;2.55;;
82777;SDS011;72510;45.128;20.734;2024-01-06T03:53:23;2.47;;;2.28;;
82777;SDS011;72510;45.128;20.734;2024-01-06T04:03:25;3.67;;;3.25;;
82777;SDS011;72510;45.128;20.734;2024-01-06T04:13:26;2.58;;;2.05;;
82777;SDS011;72510;45.128;20.734;2024-01-06T04:23:29;5.20;;;2.42;;
82777;SDS011;72510;45.128;20.734;2024-01-06T04:33:30;6.43;;;2.33;;
82777;SDS011;72510;45.128;20.734;2024-01-06T04:53:34;3.88;;;2.45;;
82777;SDS011;72510;45.128;20.734;2024-01-06T05:03:35;3.95;;;1.80;;
82777;SDS011;72510;45.128;20.734;2024-01-06T05:13:36;4.38;;;2.70;;
82777;SDS011;72510;45.128;20.734;2024-01-06T05:23:38;3.85;;;2.85;;
82777;SDS011;72510;45.128;20.734;2024-01-06T05:33:39;5.53;;;2.80;;
82777;SDS011;72510;45.128;20.734;2024-01-06T05:43:41;3.00;;;2.05;;
82777;SDS011;72510;45.128;20.734;2024-01-06T05:53:42;4.22;;;2.05;;
82777;SDS011;72510;45.128;20.734;2024-01-06T06:03:43;5.18;;;3.55;;
82777;SDS011;72510;45.128;20.734;2024-01-06T06:13:45;6.75;;;3.33;;
82777;SDS011;72510;45.128;20.734;2024-01-06T06:23:46;15.50;;;6.57;;
82777;SDS011;72510;45.128;20.734;2024-01-06T06:33:47;27.88;;;16.67;;
82777;SDS011;72510;45.128;20.734;2024-01-06T06:43:48;5.60;;;3.53;;
82777;SDS011;72510;45.128;20.734;2024-01-06T06:53:49;4.60;;;3.70;;
82777;SDS011;72510;45.128;20.734;2024-01-06T07:03:51;12.60;;;7.85;;
82777;SDS011;72510;45.128;20.734;2024-01-06T07:13:54;7.20;;;3.55;;
82777;SDS011;72510;45.128;20.734;2024-01-06T07:23:57;20.58;;;9.55;;
82777;SDS011;72510;45.128;20.734;2024-01-06T07:33:58;7.80;;;4.70;;
82777;SDS011;72510;45.128;20.734;2024-01-06T07:44:00;9.63;;;5.15;;
82777;SDS011;72510;45.128;20.734;2024-01-06T07:54:03;8.32;;;4.00;;
82777;SDS011;72510;45.128;20.734;2024-01-06T08:04:06;7.25;;;3.95;;
82777;SDS011;72510;45.128;20.734;2024-01-06T08:14:07;8.98;;;4.25;;
82777;SDS011;72510;45.128;20.734;2024-01-06T08:24:08;5.80;;;2.95;;
82777;SDS011;72510;45.128;20.734;2024-01-06T08:34:09;4.72;;;3.63;;
82777;SDS011;72510;45.128;20.734;2024-01-06T08:44:11;6.20;;;3.78;;
82777;SDS011;72510;45.128;20.734;2024-01-06T08:54:13;8.70;;;4.18;;
82777;SDS011;72510;45.128;20.734;2024-01-06T09:04:14;6.43;;;4.03;;
82777;SDS011;72510;45.128;20.734;2024-01-06T09:14:18;11.10;;;6.45;;
82777;SDS011;72510;45.128;20.734;2024-01-06T09:24:20;15.55;;;8.02;;
82777;SDS011;72510;45.128;20.734;2024-01-06T09:34:22;10.25;;;4.95;;
82777;SDS011;72510;45.128;20.734;2024-01-06T09:44:23;10.45;;;5.70;;
82777;SDS011;72510;45.128;20.734;2024-01-06T09:54:24;7.85;;;4.75;;
82777;SDS011;72510;45.128;20.734;2024-01-06T10:04:31;13.25;;;6.45;;
82777;SDS011;72510;45.128;20.734;2024-01-06T10:14:32;8.13;;;5.15;;
82777;SDS011;72510;45.128;20.734;2024-01-06T10:24:36;10.95;;;3.85;;
82777;SDS011;72510;45.128;20.734;2024-01-06T10:34:40;8.68;;;5.32;;
82777;SDS011;72510;45.128;20.734;2024-01-06T10:44:43;12.20;;;7.07;;
82777;SDS011;72510;45.128;20.734;2024-01-06T11:04:51;11.93;;;7.30;;
82777;SDS011;72510;45.128;20.734;2024-01-06T11:14:52;13.48;;;8.00;;
82777;SDS011;72510;45.128;20.734;2024-01-06T11:25:06;12.75;;;6.82;;
82777;SDS011;72510;45.128;20.734;2024-01-06T11:35:10;8.20;;;4.43;;
82777;SDS011;72510;45.128;20.734;2024-01-06T11:45:12;8.18;;;5.25;;
82777;SDS011;72510;45.128;20.734;2024-01-06T11:55:15;7.60;;;3.97;;
82777;SDS011;72510;45.128;20.734;2024-01-06T12:05:19;19.95;;;8.75;;
82777;SDS011;72510;45.128;20.734;2024-01-06T12:15:20;9.20;;;5.38;;
82777;SDS011;72510;45.128;20.734;2024-01-06T12:25:23;5.53;;;4.03;;
82777;SDS011;72510;45.128;20.734;2024-01-06T12:35:25;7.70;;;4.18;;
82777;SDS011;72510;45.128;20.734;2024-01-06T12:45:29;7.72;;;4.15;;
82777;SDS011;72510;45.128;20.734;2024-01-06T12:55:30;3.20;;;2.63;;
82777;SDS011;72510;45.128;20.734;2024-01-06T13:05:32;6.47;;;3.72;;
82777;SDS011;72510;45.128;20.734;2024-01-06T13:15:34;4.22;;;3.58;;
82777;SDS011;72510;45.128;20.734;2024-01-06T13:25:35;15.27;;;7.32;;
82777;SDS011;72510;45.128;20.734;2024-01-06T13:35:40;7.38;;;5.35;;
82777;SDS011;72510;45.128;20.734;2024-01-06T13:45:42;6.28;;;5.20;;
82777;SDS011;72510;45.128;20.734;2024-01-06T13:55:44;11.85;;;5.50;;
82777;SDS011;72510;45.128;20.734;2024-01-06T14:05:45;21.10;;;12.73;;
82777;SDS011;72510;45.128;20.734;2024-01-06T14:15:47;24.48;;;12.52;;
82777;SDS011;72510;45.128;20.734;2024-01-06T14:25:48;26.00;;;13.05;;
82777;SDS011;72510;45.128;20.734;2024-01-06T14:35:50;19.38;;;12.88;;
82777;SDS011;72510;45.128;20.734;2024-01-06T14:45:51;26.02;;;12.18;;
82777;SDS011;72510;45.128;20.734;2024-01-06T14:55:55;31.80;;;15.68;;
82777;SDS011;72510;45.128;20.734;2024-01-06T15:05:56;18.20;;;11.00;;
82777;SDS011;72510;45.128;20.734;2024-01-06T15:15:58;17.67;;;9.48;;
82777;SDS011;72510;45.128;20.734;2024-01-06T15:25:59;21.13;;;12.27;;
82777;SDS011;72510;45.128;20.734;2024-01-06T15:36:04;14.50;;;8.85;;
82777;SDS011;72510;45.128;20.734;2024-01-06T15:46:05;14.93;;;9.40;;
82777;SDS011;72510;45.128;20.734;2024-01-06T15:56:07;15.82;;;9.30;;
82777;SDS011;72510;45.128;20.734;2024-01-06T16:06:14;18.83;;;10.77;;
82777;SDS011;72510;45.128;20.734;2024-01-06T16:16:16;17.98;;;9.90;;
82777;SDS011;72510;45.128;20.734;2024-01-06T16:26:17;25.67;;;11.93;;
82777;SDS011;72510;45.128;20.734;2024-01-06T16:36:19;15.85;;;8.93;;
82777;SDS011;72510;45.128;20.734;2024-01-06T16:46:24;27.13;;;12.93;;
82777;SDS011;72510;45.128;20.734;2024-01-06T16:56:25;22.42;;;9.68;;
82777;SDS011;72510;45.128;20.734;2024-01-06T17:06:26;17.65;;;8.43;;
82777;SDS011;72510;45.128;20.734;2024-01-06T17:16:27;48.53;;;15.93;;
82777;SDS011;72510;45.128;20.734;2024-01-06T17:26:29;29.88;;;11.82;;
82777;SDS011;72510;45.128;20.734;2024-01-06T17:36:33;17.35;;;7.50;;
82777;SDS011;72510;45.128;20.734;2024-01-06T17:56:36;19.38;;;10.00;;
82777;SDS011;72510;45.128;20.734;2024-01-06T18:06:37;19.67;;;8.32;;
82777;SDS011;72510;45.128;20.734;2024-01-06T18:16:38;38.15;;;14.43;;
82777;SDS011;72510;45.128;20.734;2024-01-06T18:26:40;19.70;;;11.48;;
82777;SDS011;72510;45.128;20.734;2024-01-06T18:36:41;18.33;;;10.10;;
82777;SDS011;72510;45.128;20.734;2024-01-06T18:46:43;18.55;;;11.52;;
82777;SDS011;72510;45.128;20.734;2024-01-06T18:56:44;15.23;;;7.22;;
82777;SDS011;72510;45.128;20.734;2024-01-06T19:06:48;17.83;;;9.63;;
82777;SDS011;72510;45.128;20.734;2024-01-06T19:16:50;16.73;;;6.82;;
82777;SDS011;72510;45.128;20.734;2024-01-06T19:26:51;9.77;;;5.65;;
82777;SDS011;72510;45.128;20.734;2024-01-06T19:36:52;19.05;;;10.15;;
82777;SDS011;72510;45.128;20.734;2024-01-06T19:46:55;84.57;;;38.65;;
82777;SDS011;72510;45.128;20.734;2024-01-06T19:57:01;187.60;;;89.57;;
82777;SDS011;72510;45.128;20.734;2024-01-06T20:07:02;228.60;;;128.65;;
82777;SDS011;72510;45.128;20.734;2024-01-06T20:17:03;35.22;;;17.55;;
82777;SDS011;72510;45.128;20.734;2024-01-06T20:27:10;46.42;;;20.25;;
82777;SDS011;72510;45.128;20.734;2024-01-06T20:37:11;84.10;;;31.50;;
82777;SDS011;72510;45.128;20.734;2024-01-06T20:47:13;19.00;;;8.88;;
82777;SDS011;72510;45.128;20.734;2024-01-06T20:57:15;17.33;;;10.65;;
82777;SDS011;72510;45.128;20.734;2024-01-06T21:07:19;32.17;;;12.45;;
82777;SDS011;72510;45.128;20.734;2024-01-06T21:17:21;24.80;;;11.85;;
82777;SDS011;72510;45.128;20.734;2024-01-06T21:27:23;33.25;;;13.75;;
82777;SDS011;72510;45.128;20.734;2024-01-06T21:37:25;25.88;;;9.35;;
82777;SDS011;72510;45.128;20.734;2024-01-06T21:47:26;8.55;;;4.80;;
82777;SDS011;72510;45.128;20.734;2024-01-06T21:57:27;6.95;;;3.88;;
82777;SDS011;72510;45.128;20.734;2024-01-06T22:07:29;7.32;;;4.53;;
82777;SDS011;72510;45.128;20.734;2024-01-06T22:17:33;5.35;;;3.60;;
82777;SDS011;72510;45.128;20.734;2024-01-06T22:27:34;3.95;;;2.92;;
82777;SDS011;72510;45.128;20.734;2024-01-06T22:37:35;5.28;;;2.63;;
82777;SDS011;72510;45.128;20.734;2024-01-06T22:47:38;5.00;;;2.60;;
82777;SDS011;72510;45.128;20.734;2024-01-06T23:07:41;4.32;;;2.58;;
82777;SDS011;72510;45.128;20.734;2024-01-06T23:17:44;3.63;;;2.65;;
82777;SDS011;72510;45.128;20.734;2024-01-06T23:27:47;6.32;;;2.78;;
82777;SDS011;72510;45.128;20.734;2024-01-06T23:37:48;4.60;;;2.47;;
82777;SDS011;72510;45.128;20.734;2024-01-06T23:47:51;6.18;;;2.58;;
82777;SDS011;72510;45.128;20.734;2024-01-06T23:57:53;3.70;;;2.45;;
